Airfield :
LOGIN :

Register | Disclaimer

   EN    FR    IT 

 










Legend :    VFR   Marginal VFR   IFR   Intensive IFR   Very Intensive IFR
Visi :
Ceiling :
>= 8 km
>= 3000ft
5 to 8 km
1000 to 3000 ft
1500m to 5 km
500 to 1000 ft
800 to 1500m
200 to 500 ft
< 800m
< 200 ft
Symbols :   Thunderstorms  Fog  Heavy snow  Heavy precipitations  Wind > 20 kt
SIGMETs :     Misc.  Thunderstorms  Icing  Turbulence  Mountain Waves  Volcanic Ashes






- Airport Elevation : 13 ft
- IATA code : SNR


LFRZ - St-Nazaire

CURRENT METAR :
  • 211600Z AUTO 18009KT 9999 2800 RA FEW021/// SCT035/// BKN049/// ///CB 09/08 Q0999 TEMPO 17015G25KT 4000 SHRA

EXPIRED METARs :
  • 211530Z AUTO 15007KT 9999 3900 RA FEW035 SCT048 BKN056 09/08 Q0998 TEMPO 17015G25KT 4000 SHRA SCT012 BKN025CB
  • 211500Z AUTO 18005KT 9999 ///CB 09/08 Q0998 TEMPO 17015G25KT 4000 SHRA
  • 211430Z AUTO 21009KT 9999 -RA FEW010/// BKN035/// BKN046/// ///CB 09/07 Q0998 TEMPO 17015G25KT 4000 SHRA
  • 211400Z AUTO 17007KT 9999 ///CB 10/09 Q0998 TEMPO 17015G25KT 4000 SHRA
  • 211330Z AUTO 18008KT 8000 -RA FEW039/// BKN047/// BKN094/// ///CB 10/09 Q0998 TEMPO 17015G25KT 4000 SHRA
  • 211300Z AUTO 16011KT 9999 -RA FEW009/// BKN048/// BKN058/// ///CB 10/09 Q0998 TEMPO 17015G25KT 4000 SHRA

TAF TAF LFRZ
Valid from the 21 at 12:00 until the 22 at 12:00 UTC


211100Z 2112/2212 14010KT 9999 BKN020
TEMPO 2112/2206 17015G25KT 4000 SHRA SCT012 BKN025CB
BECMG 2208/2210 13015G25KT



MET'MAP, your aeronautical weather chart ! - Copyright ORBIFLY December 2007 - Disclaimer

ORBIFLY MET'MAP TEAM :

Programming & Development : Alexandra Zaïnal
Concept & Development : Baudouin d'Aumeries
Co-Development & Prog : Marc-Olivier Méhu
Technical & hardware support : Manuel Goepfert

Contact : metmap@orbifly.com




SOURCES & CREDITS :

   NOAA